Time;durP1;ratioP1;P1;durP2;ratioP2;P2;SDS_P1;SDS_P2;PMS_P1;PMS_P2;Temp;Humidity;BMP_temperature;BMP_pressure;BME280_temperature;BME280_humidity;BME280_pressure;Samples;Min_cycle;Max_cycle;Signal;HPM_P1;HPM_P2
2023/01/21 00:01:45;;;;;;;;;6.00;4.00;;;;;5.84;100.00;101890.41;4996304;28;45455;-80
2023/01/21 00:04:10;;;;;;;;;10.25;7.00;;;;;5.82;100.00;101890.38;4995334;28;69090;-79
2023/01/21 00:06:36;;;;;;;;;8.00;7.00;;;;;5.81;100.00;101895.53;4996217;28;45386;-80
2023/01/21 00:09:02;;;;;;;;;12.25;5.00;;;;;5.79;100.00;101897.25;4995769;28;45376;-80
2023/01/21 00:11:27;;;;;;;;;7.50;5.50;;;;;5.75;100.00;101896.34;4994652;28;46457;-80
2023/01/21 00:13:53;;;;;;;;;7.75;4.00;;;;;5.71;100.00;101899.75;4994560;28;68810;-80
2023/01/21 00:16:18;;;;;;;;;7.00;7.00;;;;;5.72;100.00;101898.91;4996148;28;45312;-79
2023/01/21 00:18:46;;;;;;;;;4.50;4.50;;;;;5.71;100.00;101904.91;4995284;28;65470;-80
2023/01/21 00:21:12;;;;;;;;;4.00;2.00;;;;;5.72;100.00;101909.25;4994513;28;45504;-79
2023/01/21 00:23:37;;;;;;;;;3.00;1.50;;;;;5.71;100.00;101904.06;4995757;28;45335;-80
2023/01/21 00:26:05;;;;;;;;;7.00;5.00;;;;;5.70;100.00;101907.47;4995221;28;63796;-80
2023/01/21 00:28:32;;;;;;;;;5.00;2.50;;;;;5.69;100.00;101909.22;4996094;28;45371;-81
2023/01/21 00:30:59;;;;;;;;;7.00;4.00;;;;;5.70;100.00;101908.38;4995678;28;46395;-79
2023/01/21 00:33:25;;;;;;;;;4.00;4.00;;;;;5.70;100.00;101908.38;4995517;28;45852;-80
2023/01/21 00:35:58;;;;;;;;;4.00;2.00;;;;;5.74;100.00;101912.72;4996170;28;45580;-80
2023/01/21 00:38:23;;;;;;;;;7.00;2.00;;;;;5.71;100.00;101907.50;4994263;28;45424;-80
2023/01/21 00:40:49;;;;;;;;;4.25;2.50;;;;;5.69;100.00;101923.84;4993716;28;66302;-80
2023/01/21 00:43:14;;;;;;;;;3.00;1.50;;;;;5.68;100.00;101916.94;4993556;28;68806;-80
2023/01/21 00:45:40;;;;;;;;;8.00;3.00;;;;;5.67;100.00;101928.13;4994983;28;66678;-79
2023/01/21 00:48:05;;;;;;;;;2.00;1.00;;;;;5.67;100.00;101930.72;4995539;28;45342;-79
2023/01/21 00:50:30;;;;;;;;;5.00;2.00;;;;;5.67;100.00;101931.59;4995547;28;45464;-79
2023/01/21 00:52:56;;;;;;;;;2.00;2.00;;;;;5.67;100.00;101931.59;4994369;28;68900;-79
2023/01/21 00:55:21;;;;;;;;;2.25;2.25;;;;;5.70;100.00;101939.38;4995665;28;45431;-79
2023/01/21 00:57:46;;;;;;;;;1.75;1.00;;;;;5.73;100.00;101941.13;4994762;28;64946;-79
2023/01/21 01:00:13;;;;;;;;;4.75;3.00;;;;;5.76;100.00;101936.00;4995332;28;46012;-80
2023/01/21 01:02:39;;;;;;;;;5.50;3.50;;;;;5.73;100.00;101938.53;4995457;28;45315;-80
2023/01/21 01:05:07;;;;;;;;;9.50;1.50;;;;;5.70;100.00;101943.66;4994371;28;45613;-80
2023/01/21 01:07:32;;;;;;;;;3.50;1.00;;;;;5.68;100.00;101945.34;4995391;28;45425;-79
2023/01/21 01:09:57;;;;;;;;;7.25;2.00;;;;;5.69;100.00;101949.69;4994846;28;46455;-79
2023/01/21 01:12:23;;;;;;;;;5.00;3.00;;;;;5.71;100.00;101958.31;4995274;28;45334;-80
2023/01/21 01:14:48;;;;;;;;;4.50;4.00;;;;;5.74;100.00;101953.16;4995275;28;45553;-80
2023/01/21 01:17:13;;;;;;;;;6.25;4.50;;;;;5.76;100.00;101957.50;4994745;28;58924;-79
2023/01/21 01:19:39;;;;;;;;;7.00;2.50;;;;;5.76;100.00;101960.09;4995055;28;46355;-79
2023/01/21 01:22:04;;;;;;;;;5.00;2.00;;;;;5.80;100.00;101963.59;4992572;28;66047;-80
2023/01/21 01:24:30;;;;;;;;;5.75;3.50;;;;;5.83;100.00;101963.59;4994664;28;61946;-80
2023/01/21 01:26:55;;;;;;;;;7.75;2.00;;;;;5.84;100.00;101970.50;4997238;28;45371;-80
2023/01/21 01:29:21;;;;;;;;;7.00;4.25;;;;;5.84;100.00;101961.91;4998213;28;51976;-80
2023/01/21 01:31:46;;;;;;;;;6.00;5.00;;;;;5.84;100.00;101969.66;4998350;28;45358;-80
2023/01/21 01:34:11;;;;;;;;;4.25;4.25;;;;;5.79;100.00;101972.16;4998456;28;45299;-80
2023/01/21 01:36:37;;;;;;;;;11.75;6.00;;;;;5.75;100.00;101971.28;4998207;28;45428;-80
2023/01/21 01:39:02;;;;;;;;;8.75;7.00;;;;;5.76;100.00;101979.91;4996679;28;58134;-80
2023/01/21 01:41:30;;;;;;;;;7.50;4.00;;;;;5.76;100.00;101978.19;4998119;28;45344;-80
2023/01/21 01:44:01;;;;;;;;;8.25;5.50;;;;;5.76;100.00;101980.75;4998440;28;45482;-80
2023/01/21 01:46:32;;;;;;;;;8.50;6.50;;;;;5.77;100.00;101981.63;5013491;28;45448;-80
2023/01/21 01:49:16;;;;;;;;;7.00;7.00;;;;;5.78;100.00;101991.13;4996843;28;45429;-80
2023/01/21 01:51:41;;;;;;;;;9.75;5.00;;;;;5.77;100.00;101989.38;4996696;28;45732;-80
2023/01/21 01:54:08;;;;;;;;;11.00;7.25;;;;;5.78;100.00;101999.72;4998245;28;45469;-80
2023/01/21 01:56:34;;;;;;;;;5.00;4.25;;;;;5.77;100.00;102010.91;4998298;28;45355;-80
2023/01/21 01:58:59;;;;;;;;;7.25;3.50;;;;;5.78;100.00;102011.78;4996862;28;45492;-80
2023/01/21 02:01:25;;;;;;;;;11.25;7.75;;;;;5.80;100.00;102028.19;4997133;28;69761;-80
2023/01/21 02:03:58;;;;;;;;;9.00;7.25;;;;;5.80;100.00;102023.00;4995866;28;63512;-80
2023/01/21 02:06:23;;;;;;;;;10.75;7.00;;;;;5.79;100.00;102031.59;4997990;28;45525;-79
2023/01/21 02:08:49;;;;;;;;;8.25;5.00;;;;;5.72;100.00;102030.69;4997653;28;45341;-80
2023/01/21 02:11:17;;;;;;;;;7.50;5.00;;;;;5.68;100.00;102034.06;4996588;28;45366;-80
2023/01/21 02:13:45;;;;;;;;;6.25;6.00;;;;;5.66;100.00;102050.41;4996867;28;45426;-80
2023/01/21 02:16:47;;;;;;;;;5.75;5.00;;;;;5.64;100.00;102037.44;4996778;28;45307;-79
2023/01/21 02:19:32;;;;;;;;;11.00;5.50;;;;;5.62;100.00;102039.16;4997444;28;46206;-80
2023/01/21 02:22:20;;;;;;;;;6.00;5.00;;;;;5.62;100.00;102062.41;4997676;28;45936;-80
2023/01/21 02:25:07;;;;;;;;;10.50;7.75;;;;;5.68;100.00;102070.22;4996586;28;45441;-80
2023/01/21 02:27:57;;;;;;;;;7.75;6.50;;;;;5.70;100.00;102068.56;4996469;28;45381;-80
2023/01/21 02:30:59;;;;;;;;;10.75;4.25;;;;;5.65;100.00;102070.19;4997458;28;46490;-80
2023/01/21 02:33:49;;;;;;;;;12.25;5.00;;;;;5.55;100.00;102079.56;4996888;28;46007;-81
2023/01/21 02:36:36;;;;;;;;;8.00;6.50;;;;;5.49;100.00;102089.78;4995767;28;45395;-80
2023/01/21 02:39:25;;;;;;;;;13.25;10.50;;;;;5.45;100.00;102090.59;4997751;28;45311;-80
2023/01/21 02:42:02;;;;;;;;;5.00;2.00;;;;;5.46;100.00;102110.41;4997517;28;46424;-80
2023/01/21 02:44:40;;;;;;;;;14.25;8.50;;;;;5.47;100.00;102116.44;4996238;28;45835;-80
2023/01/21 02:47:25;;;;;;;;;13.00;8.00;;;;;5.42;100.00;102124.09;4996198;28;45438;-80
2023/01/21 02:50:02;;;;;;;;;14.25;9.25;;;;;5.38;100.00;102136.09;4979798;28;45682;-80
2023/01/21 02:52:28;;;;;;;;;19.75;8.00;;;;;5.32;100.00;102141.19;4995925;28;45399;-80
2023/01/21 02:54:56;;;;;;;;;12.00;8.00;;;;;5.30;100.00;102144.59;4963462;28;45409;-80
2023/01/21 02:57:40;;;;;;;;;9.50;7.25;;;;;5.26;100.00;102156.59;4995881;28;45392;-80
2023/01/21 03:00:12;;;;;;;;;6.00;5.00;;;;;5.24;100.00;102166.88;4995855;28;45569;-80
2023/01/21 03:03:02;;;;;;;;;11.00;10.00;;;;;5.16;100.00;102168.50;4995401;28;45397;-80
2023/01/21 03:05:44;;;;;;;;;13.00;10.00;;;;;5.08;100.00;102182.09;4997693;28;45870;-80
2023/01/21 03:08:21;;;;;;;;;10.25;7.75;;;;;5.03;100.00;102182.00;4997106;28;45439;-80
2023/01/21 03:10:46;;;;;;;;;18.25;10.00;;;;;5.02;100.00;102181.16;4995539;28;46027;-80
2023/01/21 03:16:55;;;;;;;;;13.00;10.33;;;;;4.96;100.00;102183.63;4997003;28;45460;-80
2023/01/21 03:18:54;;;;;;;;;19.75;13.50;;;;;4.75;100.00;102194.41;4995841;28;45318;-80
2023/01/21 03:21:25;;;;;;;;;11.50;10.25;;;;;4.64;100.00;102199.41;4996867;28;45405;-79
2023/01/21 03:23:52;;;;;;;;;14.50;11.50;;;;;4.52;100.00;102180.25;4995461;28;45493;-79
2023/01/21 03:26:23;;;;;;;;;18.25;16.50;;;;;4.44;100.00;102200.72;4995489;28;45370;-80
2023/01/21 03:28:52;;;;;;;;;16.75;12.00;;;;;4.37;100.00;102197.16;4995435;28;45506;-79
2023/01/21 03:31:20;;;;;;;;;22.25;13.25;;;;;4.34;100.00;102204.81;4995222;28;45503;-79
2023/01/21 03:33:47;;;;;;;;;14.00;10.75;;;;;4.34;100.00;102206.53;4995055;28;46095;-80
2023/01/21 03:36:21;;;;;;;;;20.00;14.50;;;;;4.30;100.00;102213.31;4995950;28;63742;-79
2023/01/21 03:38:50;;;;;;;;;18.25;12.75;;;;;4.29;100.00;102224.50;4995567;28;45523;-80
2023/01/21 03:41:21;;;;;;;;;12.00;8.25;;;;;4.22;100.00;102220.03;4995208;28;45422;-80
2023/01/21 03:43:47;;;;;;;;;15.50;12.00;;;;;4.10;100.00;102218.06;4995262;28;45480;-80
2023/01/21 03:46:34;;;;;;;;;16.75;12.75;;;;;3.99;100.00;102216.94;4994100;28;64185;-79
2023/01/21 03:49:12;;;;;;;;;15.50;7.75;;;;;3.90;100.00;102230.53;4994199;28;45414;-80
2023/01/21 03:51:41;;;;;;;;;10.50;4.25;;;;;3.87;100.00;102236.47;4996662;28;45389;-80
2023/01/21 03:54:06;;;;;;;;;18.50;10.75;;;;;3.84;100.00;102230.34;4995030;28;45667;-80
2023/01/21 03:56:32;;;;;;;;;26.00;12.25;;;;;3.79;100.00;102235.41;4995385;28;68903;-80
2023/01/21 03:58:57;;;;;;;;;15.00;12.50;;;;;3.75;100.00;102240.44;4995515;28;63889;-80
2023/01/21 04:01:22;;;;;;;;;17.75;12.50;;;;;3.73;100.00;102253.28;4995137;28;66236;-80
2023/01/21 04:03:48;;;;;;;;;17.50;12.00;;;;;3.72;100.00;102241.25;4995855;28;52865;-80
2023/01/21 04:06:19;;;;;;;;;23.00;14.25;;;;;3.75;100.00;102251.66;4996114;28;45444;-80
2023/01/21 04:08:44;;;;;;;;;17.00;13.00;;;;;3.75;100.00;102251.66;4994685;28;45426;-79
2023/01/21 04:11:10;;;;;;;;;15.75;12.75;;;;;3.69;100.00;102249.75;4995362;28;64418;-80
2023/01/21 04:13:35;;;;;;;;;16.00;9.75;;;;;3.67;100.00;102254.00;4995146;28;71091;-80
2023/01/21 04:16:00;;;;;;;;;16.50;10.75;;;;;3.67;100.00;102256.59;4994698;28;68497;-80
2023/01/21 04:18:26;;;;;;;;;12.25;7.50;;;;;3.71;100.00;102252.38;4995568;28;58351;-80
2023/01/21 04:20:51;;;;;;;;;28.00;15.25;;;;;3.72;100.00;102261.00;4995285;28;63044;-80
2023/01/21 04:23:16;;;;;;;;;18.50;9.50;;;;;3.67;100.00;102259.16;4995166;28;66484;-80
2023/01/21 04:25:42;;;;;;;;;16.25;12.00;;;;;3.62;100.00;102258.22;4995967;28;45367;-80
2023/01/21 04:28:07;;;;;;;;;17.75;15.75;;;;;3.55;100.00;102255.41;4995717;28;45404;-80
2023/01/21 04:30:32;;;;;;;;;12.75;9.25;;;;;3.50;100.00;102263.03;4995083;28;51480;-79
2023/01/21 04:32:58;;;;;;;;;21.75;13.00;;;;;3.46;100.00;102259.53;4994646;28;66196;-80
2023/01/21 04:35:23;;;;;;;;;19.00;10.00;;;;;3.45;100.00;102264.63;4995540;28;45251;-80
2023/01/21 04:37:48;;;;;;;;;20.50;11.50;;;;;3.44;100.00;102273.19;4995328;28;58297;-80
2023/01/21 04:40:14;;;;;;;;;15.75;13.00;;;;;3.44;100.00;102268.91;4995023;28;65088;-80
2023/01/21 04:42:41;;;;;;;;;20.00;16.00;;;;;3.41;100.00;102276.53;4993514;28;68183;-80
2023/01/21 04:45:07;;;;;;;;;20.25;10.50;;;;;3.40;100.00;102269.69;4995208;28;45395;-80
2023/01/21 04:47:32;;;;;;;;;15.25;9.25;;;;;3.38;100.00;102279.06;4995681;28;45417;-80
2023/01/21 04:49:58;;;;;;;;;21.00;11.75;;;;;3.37;100.00;102277.31;4993828;28;57008;-80
2023/01/21 04:52:23;;;;;;;;;14.00;7.00;;;;;3.33;100.00;102272.94;4995804;28;46589;-80
2023/01/21 04:54:48;;;;;;;;;19.00;10.00;;;;;3.30;100.00;102277.97;4994697;28;68040;-80
2023/01/21 04:57:14;;;;;;;;;16.25;13.25;;;;;3.27;100.00;102283.94;4995640;28;45323;-80
2023/01/21 04:59:39;;;;;;;;;20.00;12.00;;;;;3.19;100.00;102282.84;4996224;28;61281;-80
2023/01/21 05:02:04;;;;;;;;;17.00;12.75;;;;;3.17;100.00;102288.78;4998918;28;45323;-80
2023/01/21 05:04:31;;;;;;;;;16.25;9.25;;;;;3.10;100.00;102293.78;4998851;28;45338;-80
2023/01/21 05:06:57;;;;;;;;;20.75;12.00;;;;;3.08;100.00;102286.84;4998958;28;45298;-80
2023/01/21 05:09:22;;;;;;;;;13.00;12.00;;;;;3.08;100.00;102289.41;4998727;28;45392;-80
2023/01/21 05:11:47;;;;;;;;;15.50;12.00;;;;;3.07;100.00;102293.69;4997772;28;68162;-80
2023/01/21 05:14:13;;;;;;;;;16.00;12.00;;;;;3.05;100.00;102291.91;4997702;28;62085;-80
2023/01/21 05:16:38;;;;;;;;;20.75;15.00;;;;;3.02;100.00;102279.81;4998070;28;60610;-80
2023/01/21 05:19:03;;;;;;;;;19.00;12.75;;;;;2.96;100.00;102283.94;4997379;28;45579;-81
2023/01/21 05:21:29;;;;;;;;;13.75;8.50;;;;;2.96;100.00;102294.25;4998498;28;45820;-80
2023/01/21 05:23:55;;;;;;;;;13.50;12.00;;;;;2.94;100.00;102289.06;4996864;28;56267;-80
2023/01/21 05:26:20;;;;;;;;;20.25;12.75;;;;;2.89;100.00;102288.91;4997868;28;63995;-81
2023/01/21 05:28:45;;;;;;;;;14.50;10.25;;;;;2.84;100.00;102295.66;4997823;28;46492;-81
2023/01/21 05:31:11;;;;;;;;;22.25;14.00;;;;;2.82;100.00;102302.44;4998216;28;46499;-80
2023/01/21 05:33:36;;;;;;;;;17.50;11.50;;;;;2.78;100.00;102307.44;4997719;28;61471;-80
2023/01/21 05:36:03;;;;;;;;;20.25;11.00;;;;;2.72;100.00;102310.72;4997324;28;45571;-80
2023/01/21 05:38:28;;;;;;;;;18.00;11.75;;;;;2.69;100.00;102303.81;4998438;28;45469;-80
2023/01/21 05:40:58;;;;;;;;;20.00;14.25;;;;;2.69;100.00;102306.38;4998212;28;45779;-81
2023/01/21 05:43:24;;;;;;;;;20.00;14.75;;;;;2.68;100.00;102308.91;4996820;28;45454;-79
2023/01/21 05:45:50;;;;;;;;;23.75;16.00;;;;;2.66;100.00;102318.28;4998411;28;45427;-78
2023/01/21 05:48:15;;;;;;;;;17.00;13.00;;;;;2.64;100.00;102322.50;4998361;28;45485;-79
2023/01/21 05:50:40;;;;;;;;;18.50;14.00;;;;;2.63;100.00;102320.75;4996086;28;69699;-80
2023/01/21 05:53:06;;;;;;;;;19.25;12.00;;;;;2.61;100.00;102323.25;4997420;28;66607;-80
2023/01/21 05:55:31;;;;;;;;;19.25;12.75;;;;;2.57;100.00;102325.72;4998436;28;45511;-80
2023/01/21 05:57:56;;;;;;;;;17.00;11.50;;;;;2.52;100.00;102333.28;4997168;28;59300;-80
2023/01/21 06:00:21;;;;;;;;;16.50;12.00;;;;;2.50;100.00;102334.94;4998131;28;45506;-80
2023/01/21 06:02:47;;;;;;;;;15.50;13.50;;;;;2.47;100.00;102330.56;4997937;28;47822;-79
2023/01/21 06:05:12;;;;;;;;;19.00;13.50;;;;;2.42;100.00;102327.00;4998224;28;45280;-80
2023/01/21 06:07:37;;;;;;;;;19.75;15.25;;;;;2.40;100.00;102338.94;4997766;28;48282;-79
2023/01/21 06:10:03;;;;;;;;;23.50;15.75;;;;;2.39;100.00;102331.16;4997374;28;55144;-80
2023/01/21 06:12:29;;;;;;;;;25.75;16.00;;;;;2.39;100.00;102337.16;4996708;28;45302;-80
2023/01/21 06:14:54;;;;;;;;;21.75;12.75;;;;;2.40;100.00;102340.63;4998100;28;45287;-80
2023/01/21 06:17:20;;;;;;;;;18.50;16.00;;;;;2.36;100.00;102341.34;4998058;28;45323;-80
2023/01/21 06:19:45;;;;;;;;;19.50;15.00;;;;;2.33;100.00;102353.28;4997806;28;45307;-80
2023/01/21 06:22:15;;;;;;;;;18.25;13.00;;;;;2.33;100.00;102349.84;4997878;28;45374;-80
2023/01/21 06:24:40;;;;;;;;;23.75;10.00;;;;;2.35;100.00;102352.47;4996709;28;45913;-79
2023/01/21 06:27:05;;;;;;;;;23.00;14.75;;;;;2.37;100.00;102361.09;4996757;28;62249;-79
2023/01/21 06:29:30;;;;;;;;;17.75;15.25;;;;;2.36;100.00;102354.19;4996622;28;70452;-79
2023/01/21 06:31:56;;;;;;;;;18.50;15.75;;;;;2.34;100.00;102356.75;4995463;28;66987;-80
2023/01/21 06:34:21;;;;;;;;;18.75;14.00;;;;;2.31;100.00;102357.50;4997378;28;47350;-80
2023/01/21 06:36:46;;;;;;;;;28.25;16.00;;;;;2.27;100.00;102360.81;4996779;28;64677;-79
2023/01/21 06:39:12;;;;;;;;;18.00;17.00;;;;;2.25;100.00;102364.16;4997451;28;46227;-80
2023/01/21 06:41:38;;;;;;;;;22.50;14.00;;;;;2.26;100.00;102371.03;4997012;28;45319;-80
2023/01/21 06:44:04;;;;;;;;;18.75;15.00;;;;;2.28;100.00;102367.66;4996313;28;45517;-80
2023/01/21 06:46:29;;;;;;;;;16.75;13.00;;;;;2.30;100.00;102378.00;4996452;28;45339;-79
2023/01/21 06:48:54;;;;;;;;;21.25;16.50;;;;;2.30;100.00;102383.13;4997311;28;45344;-80
2023/01/21 06:51:20;;;;;;;;;26.75;16.00;;;;;2.34;100.00;102385.00;4997341;28;45353;-80
2023/01/21 06:53:45;;;;;;;;;23.50;17.50;;;;;2.35;100.00;102389.31;4996700;28;63692;-80
2023/01/21 06:56:10;;;;;;;;;31.50;20.00;;;;;2.38;100.00;102380.81;4996643;28;57612;-79
2023/01/21 06:58:36;;;;;;;;;20.00;16.00;;;;;2.40;100.00;102399.75;4996642;28;60872;-79
2023/01/21 07:01:01;;;;;;;;;29.00;17.75;;;;;2.41;100.00;102394.63;4995103;28;67661;-79
2023/01/21 07:03:28;;;;;;;;;29.50;21.75;;;;;2.41;100.00;102397.19;4996412;28;62231;-80
2023/01/21 07:05:53;;;;;;;;;23.50;16.25;;;;;2.46;100.00;102408.50;4997250;28;45446;-81
2023/01/21 07:08:18;;;;;;;;;31.00;19.75;;;;;2.42;100.00;102409.25;4995569;28;46796;-80
2023/01/21 07:10:43;;;;;;;;;29.00;18.50;;;;;2.39;100.00;102413.41;4994333;28;65378;-80
2023/01/21 07:13:09;;;;;;;;;30.75;18.75;;;;;2.35;100.00;102409.88;4996975;28;48513;-80
2023/01/21 07:15:34;;;;;;;;;29.50;22.00;;;;;2.31;100.00;102418.31;4996400;28;60619;-80
2023/01/21 07:17:59;;;;;;;;;29.75;19.50;;;;;2.27;100.00;102421.59;4996095;28;66629;-80
2023/01/21 07:20:25;;;;;;;;;33.25;21.25;;;;;2.22;100.00;102421.44;4994631;28;68120;-77
2023/01/21 07:22:50;;;;;;;;;23.75;15.50;;;;;2.19;100.00;102428.19;4995565;28;45410;-77
2023/01/21 07:25:16;;;;;;;;;25.25;24.50;;;;;2.15;100.00;102434.91;4996206;28;51256;-77
2023/01/21 07:27:41;;;;;;;;;16.50;12.25;;;;;2.13;100.00;102434.84;4996097;28;60077;-77
2023/01/21 07:30:07;;;;;;;;;24.75;18.00;;;;;2.11;100.00;102443.34;4996688;28;45367;-77
2023/01/21 07:32:32;;;;;;;;;21.25;15.50;;;;;2.09;100.00;102450.13;4996654;28;45295;-77
2023/01/21 07:34:58;;;;;;;;;24.25;22.50;;;;;2.08;100.00;102464.69;4996608;28;45355;-77
2023/01/21 07:37:23;;;;;;;;;31.00;22.50;;;;;2.10;100.00;102459.59;4995544;28;67489;-76
2023/01/21 07:39:48;;;;;;;;;28.75;19.00;;;;;2.10;100.00;102462.16;4996186;28;57619;-77
2023/01/21 07:42:14;;;;;;;;;30.25;16.00;;;;;2.08;100.00;102469.81;4996238;28;50054;-77
2023/01/21 07:44:39;;;;;;;;;32.25;18.50;;;;;2.06;100.00;102468.00;4994512;28;66076;-77
2023/01/21 07:47:04;;;;;;;;;30.50;19.00;;;;;2.06;100.00;102475.69;4995687;28;70382;-77
2023/01/21 07:49:30;;;;;;;;;28.50;20.75;;;;;2.02;100.00;102474.72;4995308;28;65532;-77
2023/01/21 07:51:56;;;;;;;;;33.00;26.25;;;;;2.01;100.00;102480.69;4995689;28;47521;-77
2023/01/21 07:54:21;;;;;;;;;26.25;21.00;;;;;2.01;100.00;102488.41;4995223;28;45296;-78
2023/01/21 07:56:47;;;;;;;;;28.75;20.50;;;;;2.02;100.00;102491.84;4994911;28;45582;-78
2023/01/21 07:59:12;;;;;;;;;31.25;22.50;;;;;2.01;100.00;102493.53;4994936;28;68919;-77
2023/01/21 08:01:38;;;;;;;;;22.00;18.25;;;;;2.03;100.00;102491.03;4995360;28;45676;-77
2023/01/21 08:04:05;;;;;;;;;31.75;23.50;;;;;2.05;100.00;102503.09;4994478;28;45524;-77
2023/01/21 08:06:31;;;;;;;;;29.75;23.00;;;;;2.06;100.00;102499.72;4995748;28;46280;-78
2023/01/21 08:08:56;;;;;;;;;29.50;17.00;;;;;2.10;100.00;102511.84;4995592;28;51034;-78
2023/01/21 08:11:21;;;;;;;;;32.50;25.00;;;;;2.11;100.00;102510.13;4995830;28;52030;-78
2023/01/21 08:13:48;;;;;;;;;31.00;22.00;;;;;2.10;100.00;102511.84;4995282;28;63725;-78
2023/01/21 08:16:14;;;;;;;;;29.25;19.00;;;;;2.13;100.00;102518.78;4994861;28;45442;-78
2023/01/21 08:18:39;;;;;;;;;29.50;19.50;;;;;2.12;100.00;102510.19;4995151;28;45465;-78
2023/01/21 08:21:04;;;;;;;;;18.75;18.75;;;;;2.12;100.00;102519.59;4993954;28;56722;-78
2023/01/21 08:23:30;;;;;;;;;26.50;23.00;;;;;2.14;100.00;102517.97;4994694;28;45318;-79
2023/01/21 08:25:56;;;;;;;;;30.25;18.00;;;;;2.15;100.00;102526.53;4993569;28;45382;-77
2023/01/21 08:28:21;;;;;;;;;34.75;24.25;;;;;2.12;100.00;102525.59;4994281;28;45364;-78
2023/01/21 08:30:47;;;;;;;;;26.75;18.00;;;;;2.12;100.00;102528.19;4994612;28;45388;-77
2023/01/21 08:33:13;;;;;;;;;29.75;21.75;;;;;2.16;100.00;102528.28;4995207;28;45863;-78
2023/01/21 08:35:38;;;;;;;;;36.50;22.00;;;;;2.21;100.00;102537.91;5000565;28;46228;-78
2023/01/21 08:38:04;;;;;;;;;33.50;21.50;;;;;2.32;100.00;102538.25;5001011;28;58291;-77
2023/01/21 08:40:29;;;;;;;;;34.25;25.00;;;;;2.38;100.00;102537.59;5000460;28;45493;-79
2023/01/21 08:42:59;;;;;;;;;35.50;24.25;;;;;2.41;100.00;102543.69;5001236;28;59699;-79
2023/01/21 08:45:24;;;;;;;;;31.50;22.25;;;;;2.47;100.00;102548.16;5000598;28;46529;-78
2023/01/21 08:47:50;;;;;;;;;32.50;27.50;;;;;2.47;100.00;102545.59;5000495;28;45358;-78
2023/01/21 08:50:15;;;;;;;;;34.75;21.50;;;;;2.55;100.00;102553.59;5001443;28;45314;-78
2023/01/21 08:52:41;;;;;;;;;27.00;19.50;;;;;2.56;100.00;102550.19;5000754;28;45378;-77
2023/01/21 08:55:07;;;;;;;;;36.50;29.75;;;;;2.57;100.00;102557.94;5001234;28;46386;-78
2023/01/21 08:57:32;;;;;;;;;37.50;27.75;;;;;2.74;100.00;102565.34;5001728;28;45287;-78
2023/01/21 08:59:57;;;;;;;;;39.00;24.75;;;;;2.82;100.00;102558.75;5001656;28;45503;-78
2023/01/21 09:02:23;;;;;;;;;36.25;29.00;;;;;2.90;100.00;102562.47;5001092;28;63530;-77
2023/01/21 09:04:49;;;;;;;;;43.25;30.25;;;;;2.95;100.00;102558.31;5000106;28;46454;-76
2023/01/21 09:07:14;;;;;;;;;25.50;22.00;;;;;2.97;100.00;102558.38;4982200;28;45637;-77
2023/01/21 09:09:40;;;;;;;;;35.75;23.50;;;;;2.94;100.00;102573.72;4999096;28;45397;-77
2023/01/21 09:12:06;;;;;;;;;33.50;25.00;;;;;2.89;100.00;102559.00;5001821;28;45350;-77
2023/01/21 09:14:31;;;;;;;;;44.50;24.75;;;;;2.85;100.00;102571.72;5000962;28;46290;-78
2023/01/21 09:16:57;;;;;;;;;34.50;25.00;;;;;2.93;100.00;102577.97;5001358;28;45489;-78
2023/01/21 09:19:22;;;;;;;;;27.00;21.50;;;;;2.96;100.00;102572.94;5000448;28;45806;-78
2023/01/21 09:21:48;;;;;;;;;29.25;21.25;;;;;2.93;100.00;102574.53;5001512;28;45450;-79
2023/01/21 09:24:13;;;;;;;;;45.00;28.50;;;;;2.89;100.00;102571.00;4999327;28;46172;-77
2023/01/21 09:26:42;;;;;;;;;31.00;27.00;;;;;2.84;100.00;102564.81;4999851;28;65764;-78
2023/01/21 09:29:09;;;;;;;;;29.50;23.50;;;;;2.77;100.00;102568.91;5000923;28;45476;-78
2023/01/21 09:31:34;;;;;;;;;37.25;27.00;;;;;2.77;100.00;102583.44;5001283;28;45553;-77
2023/01/21 09:34:02;;;;;;;;;31.25;24.00;;;;;2.77;100.00;102575.72;4998360;28;48036;-78
2023/01/21 09:36:29;;;;;;;;;34.50;25.00;;;;;2.79;100.00;102579.25;5000957;28;45965;-78
2023/01/21 09:38:55;;;;;;;;;34.00;23.75;;;;;2.75;100.00;102574.81;5000998;28;45390;-78
2023/01/21 09:41:38;;;;;;;;;41.75;28.50;;;;;2.76;100.00;102584.28;4991147;28;45467;-78
2023/01/21 09:44:35;;;;;;;;;34.25;24.00;;;;;2.80;100.00;102592.13;4988101;28;46239;-78
2023/01/21 09:47:22;;;;;;;;;39.25;25.25;;;;;2.89;100.00;102604.44;4981168;28;45526;-78
2023/01/21 09:50:03;;;;;;;;;44.00;26.75;;;;;2.87;100.00;102594.06;4976830;28;45293;-78
2023/01/21 09:52:44;;;;;;;;;44.50;27.25;;;;;2.91;100.00;102606.22;4977471;28;45335;-76
2023/01/21 09:55:19;;;;;;;;;36.25;26.00;;;;;2.94;100.00;102615.75;4979955;28;45408;-76
2023/01/21 09:58:03;;;;;;;;;37.25;27.25;;;;;3.10;100.00;102630.88;4985644;28;45884;-77
2023/01/21 10:00:46;;;;;;;;;37.25;23.00;;;;;3.25;100.00;102635.63;4996075;28;45473;-77
2023/01/21 10:03:19;;;;;;;;;33.25;25.00;;;;;3.35;100.00;102641.06;4992862;28;45337;-77
2023/01/21 10:06:08;;;;;;;;;45.50;29.00;;;;;3.42;100.00;102643.88;4991641;28;45434;-77
2023/01/21 10:09:10;;;;;;;;;40.00;22.00;;;;;3.51;100.00;102643.28;4994979;28;46151;-77
2023/01/21 10:11:57;;;;;;;;;35.25;23.00;;;;;3.62;100.00;102657.38;4999408;28;45403;-77
2023/01/21 10:14:22;;;;;;;;;23.50;20.00;;;;;3.64;100.00;102659.97;4996910;28;45349;-77
2023/01/21 10:17:19;;;;;;;;;41.33;30.00;;;;;3.63;100.00;102651.38;4997385;28;45623;-77
2023/01/21 10:19:49;;;;;;;;;36.25;27.50;;;;;3.57;100.00;102658.06;4981073;28;45339;-77
2023/01/21 10:22:19;;;;;;;;;21.50;18.00;;;;;3.49;100.00;102661.25;4995781;28;45439;-77
2023/01/21 10:24:53;;;;;;;;;31.50;27.25;;;;;3.51;100.00;102663.00;4999326;28;45505;-77
2023/01/21 10:27:20;;;;;;;;;38.00;27.50;;;;;3.60;100.00;102663.28;5011149;28;45440;-77
2023/01/21 10:29:49;;;;;;;;;36.50;26.00;;;;;3.72;100.00;102668.81;4995162;28;45961;-75
2023/01/21 10:32:21;;;;;;;;;35.50;28.25;;;;;3.79;100.00;102664.69;4988800;28;45478;-78
2023/01/21 10:34:51;;;;;;;;;34.25;28.25;;;;;3.79;100.00;102673.34;4992110;28;45474;-78
2023/01/21 10:37:36;;;;;;;;;33.50;29.50;;;;;3.86;100.00;102680.41;4996775;28;45554;-78
2023/01/21 10:40:17;;;;;;;;;42.25;32.50;;;;;3.87;100.00;102684.72;4985190;28;45340;-79
2023/01/21 10:42:46;;;;;;;;;30.00;22.00;;;;;3.86;100.00;102684.66;4995814;28;45457;-78
2023/01/21 10:45:30;;;;;;;;;48.00;30.25;;;;;3.87;100.00;102687.31;4981258;28;45453;-79
2023/01/21 10:48:13;;;;;;;;;35.75;23.75;;;;;3.85;100.00;102682.94;4981991;28;45612;-78
2023/01/21 10:50:49;;;;;;;;;37.00;25.25;;;;;3.88;100.00;102678.75;4993269;28;45851;-79
2023/01/21 10:53:17;;;;;;;;;37.50;27.25;;;;;3.96;100.00;102672.97;4996963;28;45359;-78
2023/01/21 10:55:45;;;;;;;;;36.00;27.75;;;;;3.96;100.00;102684.13;4997458;28;45244;-78
2023/01/21 10:58:26;;;;;;;;;40.50;29.50;;;;;4.10;100.00;102681.09;5004122;28;46878;-79
2023/01/21 11:00:51;;;;;;;;;33.00;22.00;;;;;4.27;100.00;102674.69;4995598;28;45407;-78
2023/01/21 11:03:42;;;;;;;;;42.25;28.75;;;;;4.29;100.00;102685.94;4997045;28;45566;-79
2023/01/21 11:06:11;;;;;;;;;45.00;24.75;;;;;4.29;100.00;102678.22;4997133;28;45441;-78
2023/01/21 11:08:37;;;;;;;;;29.75;23.75;;;;;4.37;100.00;102683.59;4989974;28;46399;-78
2023/01/21 11:11:04;;;;;;;;;57.50;32.75;;;;;4.54;100.00;102673.72;4996807;28;45938;-78
2023/01/21 11:13:30;;;;;;;;;33.50;21.25;;;;;4.84;100.00;102671.06;4995227;28;45343;-78
2023/01/21 11:15:57;;;;;;;;;40.50;26.75;;;;;5.19;100.00;102671.09;4995757;28;45563;-79
2023/01/21 11:18:25;;;;;;;;;31.75;27.00;;;;;5.51;100.00;102670.97;4994214;28;45474;-79
2023/01/21 11:21:14;;;;;;;;;45.50;33.00;;;;;5.75;100.00;102674.09;4991908;28;46450;-79
2023/01/21 11:23:39;;;;;;;;;56.50;29.25;;;;;6.55;100.00;102669.72;4966483;28;45335;-79
2023/01/21 11:26:15;;;;;;;;;39.75;26.25;;;;;7.26;100.00;102676.09;4976854;28;45371;-79